createdAt,value
2018-11-11T00:00:15.607Z,990.84
2018-11-11T00:01:15.597Z,990.78
2018-11-11T00:02:15.590Z,990.81
2018-11-11T00:03:15.575Z,990.80
2018-11-11T00:04:15.564Z,990.82
2018-11-11T00:05:15.552Z,990.79
2018-11-11T00:06:15.542Z,990.78
2018-11-11T00:07:15.530Z,990.74
2018-11-11T00:08:15.517Z,990.75
2018-11-11T00:09:15.508Z,990.69
2018-11-11T00:10:15.496Z,990.77
2018-11-11T00:11:15.485Z,990.77
2018-11-11T00:12:15.474Z,990.74
2018-11-11T00:13:15.461Z,990.74
2018-11-11T00:14:15.452Z,990.77
2018-11-11T00:15:15.442Z,990.75
2018-11-11T00:16:15.430Z,990.76
2018-11-11T00:17:15.418Z,990.75
2018-11-11T00:18:15.408Z,990.76
2018-11-11T00:19:15.397Z,990.78
2018-11-11T00:20:15.384Z,990.78
2018-11-11T00:21:15.375Z,990.86
2018-11-11T00:22:15.363Z,990.81
2018-11-11T00:23:15.352Z,990.83
2018-11-11T00:24:15.343Z,990.85
2018-11-11T00:25:15.333Z,990.79
2018-11-11T00:26:15.321Z,990.79
2018-11-11T00:27:15.313Z,990.82
2018-11-11T00:28:15.297Z,990.87
2018-11-11T00:29:15.288Z,990.89
2018-11-11T00:30:15.274Z,990.91
2018-11-11T00:31:15.265Z,990.94
2018-11-11T00:32:15.253Z,990.98
2018-11-11T00:33:15.242Z,991.00
2018-11-11T00:34:15.230Z,991.04
2018-11-11T00:35:15.224Z,990.93
2018-11-11T00:36:15.208Z,990.98
2018-11-11T00:37:15.198Z,991.01
2018-11-11T00:38:15.188Z,991.03
2018-11-11T00:39:15.187Z,990.98
2018-11-11T00:40:15.167Z,991.00
2018-11-11T00:41:15.153Z,991.00
2018-11-11T00:42:15.148Z,991.00
2018-11-11T00:43:15.138Z,990.99
2018-11-11T00:44:15.123Z,990.94
2018-11-11T00:45:15.111Z,991.00
2018-11-11T00:46:15.098Z,991.04
2018-11-11T00:47:15.090Z,991.08
2018-11-11T00:48:15.079Z,991.10
2018-11-11T00:49:15.071Z,991.13
2018-11-11T00:50:15.130Z,991.20
2018-11-11T00:51:15.049Z,991.26
2018-11-11T00:52:15.035Z,991.30
2018-11-11T00:53:15.023Z,991.25
2018-11-11T00:54:15.010Z,991.27
2018-11-11T00:55:15.000Z,991.31
2018-11-11T00:56:14.992Z,991.27
2018-11-11T00:57:14.978Z,991.30
2018-11-11T00:58:14.968Z,991.29
2018-11-11T00:59:14.956Z,991.26
2018-11-11T01:00:14.944Z,991.29
2018-11-11T01:01:14.939Z,991.31
2018-11-11T01:02:14.923Z,991.30
2018-11-11T01:03:14.910Z,991.39
2018-11-11T01:04:14.900Z,991.39
2018-11-11T01:05:14.890Z,991.46
2018-11-11T01:06:14.877Z,991.50
2018-11-11T01:07:14.868Z,991.54
2018-11-11T01:08:14.855Z,991.53
2018-11-11T01:09:14.844Z,991.55
2018-11-11T01:10:14.834Z,991.50
2018-11-11T01:11:14.824Z,991.42
2018-11-11T01:12:14.871Z,991.44
2018-11-11T01:13:14.803Z,991.33
2018-11-11T01:14:14.789Z,991.36
2018-11-11T01:15:14.778Z,991.35
2018-11-11T01:16:14.770Z,991.33
2018-11-11T01:17:14.758Z,991.32
2018-11-11T01:18:14.749Z,991.22
2018-11-11T01:19:14.737Z,991.25
2018-11-11T01:20:14.728Z,991.33
2018-11-11T01:21:14.713Z,991.40
2018-11-11T01:22:14.704Z,991.41
2018-11-11T01:23:14.691Z,991.45
2018-11-11T01:24:14.683Z,991.47
2018-11-11T01:25:14.670Z,991.45
2018-11-11T01:26:14.656Z,991.42
2018-11-11T01:27:14.647Z,991.49
2018-11-11T01:28:14.638Z,991.49
2018-11-11T01:29:14.626Z,991.55
2018-11-11T01:30:14.619Z,991.48
2018-11-11T01:31:14.601Z,991.56
2018-11-11T01:32:14.593Z,991.51
2018-11-11T01:33:14.582Z,991.57
2018-11-11T01:34:14.573Z,991.53
2018-11-11T01:35:14.561Z,991.52
2018-11-11T01:36:14.548Z,991.51
2018-11-11T01:37:14.537Z,991.52
2018-11-11T01:38:14.529Z,991.47
2018-11-11T01:39:14.515Z,991.49
2018-11-11T01:40:14.505Z,991.48
2018-11-11T01:41:14.495Z,991.41
2018-11-11T01:42:14.481Z,991.40
2018-11-11T01:43:14.474Z,991.43
2018-11-11T01:44:14.460Z,991.41
2018-11-11T01:45:14.449Z,991.35
2018-11-11T01:46:14.438Z,991.33
2018-11-11T01:47:14.431Z,991.36
2018-11-11T01:48:14.420Z,991.33
2018-11-11T01:49:14.405Z,991.30
2018-11-11T01:50:14.398Z,991.27
2018-11-11T01:51:14.382Z,991.32
2018-11-11T01:52:14.372Z,991.39
2018-11-11T01:53:14.361Z,991.32
2018-11-11T01:54:14.350Z,991.36
2018-11-11T01:55:14.341Z,991.34
2018-11-11T01:56:14.329Z,991.32
2018-11-11T01:57:14.315Z,991.32
2018-11-11T01:58:14.308Z,991.30
2018-11-11T01:59:14.297Z,991.35
2018-11-11T02:00:14.284Z,991.33
2018-11-11T02:01:14.272Z,991.31
2018-11-11T02:02:14.261Z,991.28
2018-11-11T02:03:14.250Z,991.29
2018-11-11T02:04:14.240Z,991.27
2018-11-11T02:05:14.229Z,991.32
2018-11-11T02:06:14.215Z,991.31
2018-11-11T02:07:14.207Z,991.32
2018-11-11T02:08:14.198Z,991.32
2018-11-11T02:09:14.186Z,991.37
2018-11-11T02:10:14.174Z,991.35
2018-11-11T02:11:14.163Z,991.26
2018-11-11T02:12:14.154Z,991.27
2018-11-11T02:13:14.141Z,991.31
2018-11-11T02:14:14.132Z,991.36
2018-11-11T02:15:14.120Z,991.39
2018-11-11T02:16:14.109Z,991.43
2018-11-11T02:17:14.099Z,991.48
2018-11-11T02:18:14.085Z,991.52
2018-11-11T02:19:14.074Z,991.49
2018-11-11T02:20:14.063Z,991.54
2018-11-11T02:21:14.096Z,991.58
2018-11-11T02:22:14.044Z,991.61
2018-11-11T02:23:14.029Z,991.64
2018-11-11T02:24:14.019Z,991.68
2018-11-11T02:25:14.008Z,991.68
2018-11-11T02:26:13.998Z,991.65
2018-11-11T02:27:13.987Z,991.63
2018-11-11T02:28:13.976Z,991.65
2018-11-11T02:29:13.966Z,991.62
2018-11-11T02:30:13.960Z,991.58
2018-11-11T02:31:13.967Z,991.49
2018-11-11T02:32:13.932Z,991.50
2018-11-11T02:33:13.922Z,991.44
2018-11-11T02:34:13.911Z,991.46
2018-11-11T02:35:13.902Z,991.35
2018-11-11T02:36:13.891Z,991.31
2018-11-11T02:37:13.915Z,991.36
2018-11-11T02:38:13.866Z,991.36
2018-11-11T02:39:13.855Z,991.38
2018-11-11T02:40:13.842Z,991.40
2018-11-11T02:41:13.834Z,991.43
2018-11-11T02:42:13.822Z,991.43
2018-11-11T02:43:13.811Z,991.40
2018-11-11T02:44:13.799Z,991.40
2018-11-11T02:45:13.790Z,991.48
2018-11-11T02:46:13.778Z,991.47
2018-11-11T02:47:13.767Z,991.51
2018-11-11T02:48:13.759Z,991.49
2018-11-11T02:49:13.745Z,991.48
2018-11-11T02:50:13.735Z,991.48
2018-11-11T02:51:13.723Z,991.43
2018-11-11T02:52:13.712Z,991.46
2018-11-11T02:53:13.701Z,991.41
2018-11-11T02:54:13.691Z,991.37
2018-11-11T02:55:13.679Z,991.40
2018-11-11T02:56:13.666Z,991.39
2018-11-11T02:57:13.657Z,991.36
2018-11-11T02:58:13.647Z,991.31
2018-11-11T02:59:13.636Z,991.33
2018-11-11T03:00:13.623Z,991.30
2018-11-11T03:01:13.621Z,991.27
2018-11-11T03:02:13.600Z,991.25
2018-11-11T03:03:13.590Z,991.29
2018-11-11T03:04:13.599Z,991.22
2018-11-11T03:05:13.576Z,991.19
2018-11-11T03:06:13.558Z,991.13
2018-11-11T03:07:13.548Z,991.12
2018-11-11T03:08:13.537Z,991.10
2018-11-11T03:09:13.543Z,991.10
2018-11-11T03:10:13.513Z,991.15
2018-11-11T03:11:13.504Z,991.15
2018-11-11T03:12:13.494Z,991.18
2018-11-11T03:13:13.481Z,991.15
2018-11-11T03:14:13.471Z,991.18
2018-11-11T03:15:13.459Z,991.25
2018-11-11T03:16:13.447Z,991.19
2018-11-11T03:17:13.437Z,991.17
2018-11-11T03:18:13.426Z,991.12
2018-11-11T03:19:13.413Z,991.08
2018-11-11T03:20:13.404Z,991.06
2018-11-11T03:21:13.391Z,991.13
2018-11-11T03:22:13.380Z,991.12
2018-11-11T03:23:13.372Z,991.13
2018-11-11T03:24:13.360Z,991.11
2018-11-11T03:25:13.350Z,991.15
2018-11-11T03:26:13.336Z,991.20
2018-11-11T03:27:13.326Z,991.19
2018-11-11T03:28:13.316Z,991.26
2018-11-11T03:29:13.303Z,991.26
2018-11-11T03:30:13.295Z,991.25
2018-11-11T03:31:13.282Z,991.24
2018-11-11T03:32:13.275Z,991.19
2018-11-11T03:33:13.265Z,991.17
2018-11-11T03:34:13.249Z,991.16
2018-11-11T03:35:13.238Z,991.11
2018-11-11T03:36:13.227Z,991.07
2018-11-11T03:37:13.221Z,991.02
2018-11-11T03:38:13.205Z,991.01
2018-11-11T03:39:13.194Z,991.02
2018-11-11T03:40:13.184Z,991.04
2018-11-11T03:41:13.188Z,991.06
2018-11-11T03:42:13.163Z,991.03
2018-11-11T03:43:13.152Z,991.01
2018-11-11T03:44:13.139Z,991.02
2018-11-11T03:45:13.132Z,991.06
2018-11-11T03:46:13.119Z,991.01
2018-11-11T03:47:13.108Z,990.91
2018-11-11T03:48:13.096Z,990.92
2018-11-11T03:49:13.084Z,990.94
2018-11-11T03:50:13.079Z,990.97
2018-11-11T03:51:13.065Z,990.92
2018-11-11T03:52:13.051Z,990.90
2018-11-11T03:53:13.043Z,990.90
2018-11-11T03:54:13.029Z,990.91
2018-11-11T03:55:13.018Z,990.92
2018-11-11T03:56:13.009Z,990.93
2018-11-11T03:57:12.998Z,990.92
2018-11-11T03:58:12.986Z,990.99
2018-11-11T03:59:12.975Z,991.00
2018-11-11T04:00:12.965Z,991.08
2018-11-11T04:01:12.953Z,991.06
2018-11-11T04:02:12.941Z,991.07
2018-11-11T04:03:12.931Z,991.03
2018-11-11T04:04:12.920Z,991.08
2018-11-11T04:05:12.908Z,991.15
2018-11-11T04:06:12.897Z,991.07
2018-11-11T04:07:12.889Z,991.04
2018-11-11T04:08:12.875Z,991.11
2018-11-11T04:09:12.864Z,991.09
2018-11-11T04:10:12.893Z,991.08
2018-11-11T04:11:12.843Z,991.07
2018-11-11T04:12:12.832Z,991.05
2018-11-11T04:13:12.825Z,991.01
2018-11-11T04:14:12.809Z,990.94
2018-11-11T04:15:12.797Z,990.92
2018-11-11T04:16:12.790Z,990.96
2018-11-11T04:17:12.776Z,990.93
2018-11-11T04:18:12.769Z,990.95
2018-11-11T04:19:12.756Z,990.92
2018-11-11T04:20:12.756Z,990.91
2018-11-11T04:21:12.732Z,990.93
2018-11-11T04:22:12.723Z,990.96
2018-11-11T04:23:12.709Z,990.95
2018-11-11T04:24:12.699Z,990.92
2018-11-11T04:25:12.690Z,990.94
2018-11-11T04:26:12.684Z,991.02
2018-11-11T04:27:12.665Z,991.04
2018-11-11T04:28:12.658Z,991.04
2018-11-11T04:29:12.643Z,991.07
2018-11-11T04:30:12.632Z,991.07
2018-11-11T04:31:12.623Z,991.10
2018-11-11T04:32:12.612Z,991.14
2018-11-11T04:33:12.602Z,991.13
2018-11-11T04:34:12.589Z,991.19
2018-11-11T04:35:12.621Z,991.23
2018-11-11T04:36:12.567Z,991.21
2018-11-11T04:37:12.557Z,991.24
2018-11-11T04:38:12.546Z,991.26
2018-11-11T04:39:12.608Z,991.21
2018-11-11T04:40:12.527Z,991.24
2018-11-11T04:41:12.513Z,991.26
2018-11-11T04:42:12.502Z,991.24
2018-11-11T04:43:12.489Z,991.22
2018-11-11T04:44:12.480Z,991.19
2018-11-11T04:45:12.469Z,991.15
2018-11-11T04:46:12.509Z,991.19
2018-11-11T04:47:12.446Z,991.24
2018-11-11T04:48:12.434Z,991.20
2018-11-11T04:49:12.424Z,991.25
2018-11-11T04:50:12.427Z,991.24
2018-11-11T04:51:12.401Z,991.23
2018-11-11T04:52:12.392Z,991.29
2018-11-11T04:53:12.386Z,991.26
2018-11-11T04:54:12.369Z,991.28
2018-11-11T04:55:12.359Z,991.29
2018-11-11T04:56:12.350Z,991.32
2018-11-11T04:57:12.335Z,991.30
2018-11-11T04:58:12.325Z,991.35
2018-11-11T04:59:12.316Z,991.29
2018-11-11T05:00:12.304Z,991.30
2018-11-11T05:01:12.302Z,991.26
2018-11-11T05:02:12.279Z,991.24
2018-11-11T05:03:12.273Z,991.26
2018-11-11T05:04:12.259Z,991.24
2018-11-11T05:05:12.254Z,991.25
2018-11-11T05:06:12.237Z,991.30
2018-11-11T05:07:12.227Z,991.26
2018-11-11T05:08:12.215Z,991.23
2018-11-11T05:09:12.204Z,991.24
2018-11-11T05:10:12.195Z,991.18
2018-11-11T05:11:12.232Z,991.16
2018-11-11T05:12:12.172Z,991.11
2018-11-11T05:13:12.158Z,991.15
2018-11-11T05:14:12.150Z,991.24
2018-11-11T05:15:12.137Z,991.17
2018-11-11T05:16:12.127Z,991.17
2018-11-11T05:17:12.115Z,991.17
2018-11-11T05:18:12.105Z,991.17
2018-11-11T05:19:12.095Z,991.20
2018-11-11T05:20:12.084Z,991.16
2018-11-11T05:21:12.073Z,991.18
2018-11-11T05:22:12.063Z,991.25
2018-11-11T05:23:12.051Z,991.20
2018-11-11T05:24:12.050Z,991.20
2018-11-11T05:25:12.029Z,991.23
2018-11-11T05:26:12.026Z,991.23
2018-11-11T05:27:12.006Z,991.22
2018-11-11T05:28:11.993Z,991.29
2018-11-11T05:29:11.987Z,991.24
2018-11-11T05:30:11.984Z,991.24
2018-11-11T05:31:11.961Z,991.25
2018-11-11T05:32:11.954Z,991.24
2018-11-11T05:33:11.940Z,991.25
2018-11-11T05:34:11.927Z,991.23
2018-11-11T05:35:11.918Z,991.21
2018-11-11T05:36:11.907Z,991.16
2018-11-11T05:37:11.897Z,991.14
2018-11-11T05:38:11.885Z,991.21
2018-11-11T05:39:11.876Z,991.17
2018-11-11T05:40:11.862Z,991.18
2018-11-11T05:41:11.853Z,991.24
2018-11-11T05:42:11.842Z,991.28
2018-11-11T05:43:11.828Z,991.29
2018-11-11T05:44:11.818Z,991.34
2018-11-11T05:45:11.815Z,991.38
2018-11-11T05:46:11.795Z,991.36
2018-11-11T05:47:11.786Z,991.40
2018-11-11T05:48:11.777Z,991.39
2018-11-11T05:49:11.766Z,991.41
2018-11-11T05:50:11.759Z,991.43
2018-11-11T05:51:11.742Z,991.42
2018-11-11T05:52:11.731Z,991.47
2018-11-11T05:53:11.722Z,991.42
2018-11-11T05:54:11.710Z,991.44
2018-11-11T05:55:11.700Z,991.50
2018-11-11T05:56:11.686Z,991.50
2018-11-11T05:57:11.676Z,991.53
2018-11-11T05:58:11.666Z,991.55
2018-11-11T05:59:11.655Z,991.58
2018-11-11T06:00:11.644Z,991.56
2018-11-11T06:01:11.631Z,991.53
2018-11-11T06:02:11.620Z,991.52
2018-11-11T06:03:11.611Z,991.55
2018-11-11T06:04:11.599Z,991.55
2018-11-11T06:05:11.591Z,991.58
2018-11-11T06:06:11.577Z,991.57
2018-11-11T06:07:11.565Z,991.55
2018-11-11T06:08:11.553Z,991.63
2018-11-11T06:09:11.544Z,991.59
2018-11-11T06:10:11.535Z,991.63
2018-11-11T06:11:11.536Z,991.59
2018-11-11T06:12:11.511Z,991.60
2018-11-11T06:13:11.505Z,991.64
2018-11-11T06:14:11.489Z,991.68
2018-11-11T06:15:11.479Z,991.68
2018-11-11T06:16:11.466Z,991.67
2018-11-11T06:17:11.456Z,991.66
2018-11-11T06:18:11.445Z,991.63
2018-11-11T06:19:11.436Z,991.64
2018-11-11T06:20:11.424Z,991.57
2018-11-11T06:21:11.411Z,991.59
2018-11-11T06:22:11.401Z,991.61
2018-11-11T06:23:11.390Z,991.64
2018-11-11T06:24:11.378Z,991.52
2018-11-11T06:25:11.368Z,991.50
2018-11-11T06:26:11.359Z,991.49
2018-11-11T06:27:11.345Z,991.46
2018-11-11T06:28:11.334Z,991.51
2018-11-11T06:29:11.323Z,991.52
2018-11-11T06:30:11.311Z,991.54
2018-11-11T06:31:11.303Z,991.48
2018-11-11T06:32:11.291Z,991.52
2018-11-11T06:33:11.282Z,991.46
2018-11-11T06:34:11.321Z,991.51
2018-11-11T06:35:11.262Z,991.55
2018-11-11T06:36:11.247Z,991.58
2018-11-11T06:37:11.235Z,991.60
2018-11-11T06:38:11.225Z,991.64
2018-11-11T06:39:11.219Z,991.69
2018-11-11T06:40:11.204Z,991.69
2018-11-11T06:41:11.192Z,991.74
2018-11-11T06:42:11.183Z,991.69
2018-11-11T06:43:11.170Z,991.71
2018-11-11T06:44:11.160Z,991.65
2018-11-11T06:45:11.150Z,991.65
2018-11-11T06:46:11.135Z,991.68
2018-11-11T06:47:11.126Z,991.70
2018-11-11T06:48:11.232Z,991.66
2018-11-11T06:49:11.104Z,991.72
2018-11-11T06:50:11.092Z,991.68
2018-11-11T06:51:11.087Z,991.68
2018-11-11T06:52:11.070Z,991.75
2018-11-11T06:53:11.065Z,991.69
2018-11-11T06:54:11.050Z,991.70
2018-11-11T06:55:11.037Z,991.68
2018-11-11T06:56:11.028Z,991.74
2018-11-11T06:57:11.018Z,991.79
2018-11-11T06:58:11.092Z,991.82
2018-11-11T06:59:10.995Z,991.87
2018-11-11T07:00:10.984Z,991.81
2018-11-11T07:01:10.970Z,991.82
2018-11-11T07:02:10.961Z,991.84
2018-11-11T07:03:10.956Z,991.81
2018-11-11T07:04:10.938Z,991.86
2018-11-11T07:05:10.939Z,991.87
2018-11-11T07:06:10.918Z,991.85
2018-11-11T07:07:10.905Z,991.89
2018-11-11T07:08:10.895Z,991.87
2018-11-11T07:09:10.884Z,991.90
2018-11-11T07:10:10.879Z,991.90
2018-11-11T07:11:10.861Z,991.90
2018-11-11T07:12:10.851Z,991.85
2018-11-11T07:13:10.843Z,991.91
2018-11-11T07:14:10.952Z,991.92
2018-11-11T07:15:10.819Z,991.91
2018-11-11T07:16:10.810Z,991.94
2018-11-11T07:17:10.795Z,991.94
2018-11-11T07:18:10.787Z,992.02
2018-11-11T07:19:10.773Z,992.04
2018-11-11T07:20:10.762Z,992.01
2018-11-11T07:21:10.753Z,991.97
2018-11-11T07:22:10.741Z,992.07
2018-11-11T07:23:10.730Z,992.15
2018-11-11T07:24:10.779Z,992.15
2018-11-11T07:25:10.712Z,992.10
2018-11-11T07:26:10.696Z,992.15
2018-11-11T07:27:10.685Z,992.19
2018-11-11T07:28:10.675Z,992.18
2018-11-11T07:29:10.663Z,992.17
2018-11-11T07:30:10.670Z,992.19
2018-11-11T07:31:10.643Z,992.25
2018-11-11T07:32:10.633Z,992.19
2018-11-11T07:33:10.620Z,992.19
2018-11-11T07:34:10.613Z,992.25
2018-11-11T07:35:10.598Z,992.16
2018-11-11T07:36:10.694Z,992.17
2018-11-11T07:37:10.577Z,992.23
2018-11-11T07:38:10.564Z,992.28
2018-11-11T07:39:10.556Z,992.25
2018-11-11T07:40:10.543Z,992.27
2018-11-11T07:41:10.535Z,992.30
2018-11-11T07:42:10.523Z,992.39
2018-11-11T07:43:10.511Z,992.43
2018-11-11T07:44:10.498Z,992.49
2018-11-11T07:45:10.488Z,992.47
2018-11-11T07:46:10.476Z,992.53
2018-11-11T07:47:10.467Z,992.49
2018-11-11T07:48:10.456Z,992.55
2018-11-11T07:49:10.449Z,992.51
2018-11-11T07:50:10.435Z,992.54
2018-11-11T07:51:10.421Z,992.58
2018-11-11T07:52:10.531Z,992.59
2018-11-11T07:53:10.398Z,992.59
2018-11-11T07:54:10.389Z,992.64
2018-11-11T07:55:10.606Z,992.62
2018-11-11T07:56:10.369Z,992.59
2018-11-11T07:57:10.355Z,992.62
2018-11-11T07:58:10.350Z,992.54
2018-11-11T07:59:10.334Z,992.64
2018-11-11T08:00:10.321Z,992.67
2018-11-11T08:01:10.310Z,992.63
2018-11-11T08:02:10.365Z,992.67
2018-11-11T08:03:10.289Z,992.56
2018-11-11T08:04:10.279Z,992.58
2018-11-11T08:05:10.267Z,992.52
2018-11-11T08:06:10.256Z,992.53
2018-11-11T08:07:10.245Z,992.55
2018-11-11T08:08:10.235Z,992.62
2018-11-11T08:09:10.223Z,992.70
2018-11-11T08:10:10.211Z,992.63
2018-11-11T08:11:10.354Z,992.67
2018-11-11T08:12:10.191Z,992.62
2018-11-11T08:13:10.180Z,992.64
2018-11-11T08:14:10.167Z,992.59
2018-11-11T08:15:10.158Z,992.56
2018-11-11T08:16:10.153Z,992.63
2018-11-11T08:17:10.133Z,992.64
2018-11-11T08:18:10.122Z,992.71
2018-11-11T08:19:10.118Z,992.74
2018-11-11T08:20:10.101Z,992.77
2018-11-11T08:21:10.091Z,992.79
2018-11-11T08:22:10.078Z,992.82
2018-11-11T08:23:10.068Z,992.81
2018-11-11T08:24:10.058Z,992.81
2018-11-11T08:25:10.048Z,992.82
2018-11-11T08:26:10.039Z,992.84
2018-11-11T08:27:10.024Z,992.85
2018-11-11T08:28:10.013Z,992.85
2018-11-11T08:29:10.002Z,992.87
2018-11-11T08:30:09.993Z,992.85
2018-11-11T08:31:09.985Z,992.80
2018-11-11T08:32:09.984Z,992.88
2018-11-11T08:33:09.967Z,992.87
2018-11-11T08:34:09.948Z,992.89
2018-11-11T08:35:09.936Z,992.85
2018-11-11T08:36:09.926Z,992.86
2018-11-11T08:37:09.914Z,992.78
2018-11-11T08:38:09.904Z,992.77
2018-11-11T08:39:09.896Z,992.83
2018-11-11T08:40:09.881Z,992.84
2018-11-11T08:41:09.870Z,992.85
2018-11-11T08:42:09.860Z,992.86
2018-11-11T08:43:09.851Z,992.86
2018-11-11T08:44:09.837Z,992.84
2018-11-11T08:45:09.827Z,992.85
2018-11-11T08:46:09.816Z,992.80
2018-11-11T08:47:09.805Z,992.78
2018-11-11T08:48:09.899Z,992.76
2018-11-11T08:49:09.783Z,992.67
2018-11-11T08:50:09.771Z,992.78
2018-11-11T08:51:09.760Z,992.78
2018-11-11T08:52:09.749Z,992.78
2018-11-11T08:53:09.739Z,992.78
2018-11-11T08:54:09.728Z,992.87
2018-11-11T08:55:09.739Z,992.88
2018-11-11T08:56:09.704Z,992.89
2018-11-11T08:57:09.692Z,992.86
2018-11-11T08:58:09.759Z,992.82
2018-11-11T08:59:09.672Z,992.93
2018-11-11T09:00:09.661Z,992.87
2018-11-11T09:01:09.652Z,992.87
2018-11-11T09:02:09.639Z,992.85
2018-11-11T09:03:09.629Z,992.75
2018-11-11T09:04:09.615Z,992.83
2018-11-11T09:05:09.606Z,992.85
2018-11-11T09:06:09.596Z,992.88
2018-11-11T09:07:09.584Z,992.77
2018-11-11T09:08:09.573Z,992.79
2018-11-11T09:09:09.561Z,992.82
2018-11-11T09:10:09.561Z,992.83
2018-11-11T09:11:09.541Z,992.84
2018-11-11T09:12:09.535Z,992.92
2018-11-11T09:13:09.528Z,992.83
2018-11-11T09:14:09.509Z,992.88
2018-11-11T09:15:09.495Z,992.88
2018-11-11T09:16:09.485Z,992.92
2018-11-11T09:17:09.518Z,992.88
2018-11-11T09:18:09.464Z,992.86
2018-11-11T09:19:09.452Z,992.83
2018-11-11T09:20:09.487Z,992.86
2018-11-11T09:21:09.432Z,992.84
2018-11-11T09:22:09.419Z,992.84
2018-11-11T09:23:09.412Z,992.91
2018-11-11T09:24:09.395Z,992.95
2018-11-11T09:25:09.386Z,992.89
2018-11-11T09:26:09.376Z,992.95
2018-11-11T09:27:09.364Z,992.87
2018-11-11T09:28:09.354Z,992.94
2018-11-11T09:29:09.341Z,992.96
2018-11-11T09:30:09.331Z,992.95
2018-11-11T09:31:09.328Z,993.01
2018-11-11T09:32:09.310Z,993.11
2018-11-11T09:33:09.298Z,993.11
2018-11-11T09:34:09.287Z,993.06
2018-11-11T09:35:09.289Z,993.11
2018-11-11T09:36:09.269Z,993.17
2018-11-11T09:37:09.254Z,993.19
2018-11-11T09:38:09.243Z,993.16
2018-11-11T09:39:09.340Z,993.18
2018-11-11T09:40:09.220Z,993.14
2018-11-11T09:41:09.211Z,993.18
2018-11-11T09:42:09.200Z,993.10
2018-11-11T09:43:09.188Z,993.06
2018-11-11T09:44:09.176Z,993.05
2018-11-11T09:45:09.166Z,993.08
2018-11-11T09:46:09.154Z,993.05
2018-11-11T09:47:09.144Z,993.07
2018-11-11T09:48:09.135Z,993.09
2018-11-11T09:49:09.121Z,993.06
2018-11-11T09:50:09.111Z,993.17
2018-11-11T09:51:09.099Z,993.08
2018-11-11T09:52:09.093Z,993.04
2018-11-11T09:53:09.078Z,993.08
2018-11-11T09:54:09.143Z,993.05
2018-11-11T09:55:09.056Z,993.13
2018-11-11T09:56:09.044Z,993.19
2018-11-11T09:57:09.032Z,993.23
2018-11-11T09:58:09.029Z,993.28
2018-11-11T09:59:09.011Z,993.26
2018-11-11T10:00:09.004Z,993.20
2018-11-11T10:01:08.990Z,993.25
2018-11-11T10:02:08.980Z,993.25
2018-11-11T10:03:08.966Z,993.21
2018-11-11T10:04:08.956Z,993.21
2018-11-11T10:05:08.946Z,993.17
2018-11-11T10:06:08.936Z,993.15
2018-11-11T10:07:09.073Z,993.15
2018-11-11T10:08:08.911Z,993.08
2018-11-11T10:09:08.904Z,993.09
2018-11-11T10:10:08.895Z,993.06
2018-11-11T10:11:08.879Z,993.06
2018-11-11T10:12:08.914Z,993.05
2018-11-11T10:13:08.859Z,993.06
2018-11-11T10:14:08.847Z,993.05
2018-11-11T10:15:08.837Z,993.08
2018-11-11T10:16:08.828Z,993.02
2018-11-11T10:17:08.815Z,993.03
2018-11-11T10:18:08.807Z,993.05
2018-11-11T10:19:08.797Z,993.01
2018-11-11T10:20:08.844Z,993.05
2018-11-11T10:21:08.769Z,993.04
2018-11-11T10:22:08.762Z,993.10
2018-11-11T10:23:08.751Z,993.10
2018-11-11T10:24:08.741Z,993.09
2018-11-11T10:25:08.729Z,993.07
2018-11-11T10:26:08.717Z,993.15
2018-11-11T10:27:08.734Z,993.14
2018-11-11T10:28:08.695Z,993.17
2018-11-11T10:29:08.806Z,993.21
2018-11-11T10:30:08.675Z,993.31
2018-11-11T10:31:08.663Z,993.29
2018-11-11T10:32:08.650Z,993.29
2018-11-11T10:33:08.641Z,993.28
2018-11-11T10:34:08.633Z,993.26
2018-11-11T10:35:08.618Z,993.30
2018-11-11T10:36:08.607Z,993.35
2018-11-11T10:37:08.653Z,993.29
2018-11-11T10:38:08.587Z,993.31
2018-11-11T10:39:08.598Z,993.32
2018-11-11T10:40:08.562Z,993.31
2018-11-11T10:41:08.555Z,993.38
2018-11-11T10:42:08.544Z,993.40
2018-11-11T10:43:08.531Z,993.46
2018-11-11T10:44:08.587Z,993.45
2018-11-11T10:45:08.510Z,993.46
2018-11-11T10:46:08.500Z,993.53
2018-11-11T10:47:08.488Z,993.49
2018-11-11T10:48:08.477Z,993.45
2018-11-11T10:49:08.465Z,993.53
2018-11-11T10:50:08.453Z,993.53
2018-11-11T10:51:08.445Z,993.50
2018-11-11T10:52:08.433Z,993.57
2018-11-11T10:53:08.424Z,993.54
2018-11-11T10:54:08.431Z,993.59
2018-11-11T10:55:08.399Z,993.59
2018-11-11T10:56:08.388Z,993.60
2018-11-11T10:57:08.383Z,993.62
2018-11-11T10:58:08.368Z,993.64
2018-11-11T10:59:08.361Z,993.64
2018-11-11T11:00:08.409Z,993.65
2018-11-11T11:01:08.335Z,993.66
2018-11-11T11:02:08.323Z,993.69
2018-11-11T11:03:08.315Z,993.72
2018-11-11T11:04:08.303Z,993.66
2018-11-11T11:05:08.292Z,993.67
2018-11-11T11:06:08.376Z,993.76
2018-11-11T11:07:08.270Z,993.76
2018-11-11T11:08:08.260Z,993.66
2018-11-11T11:09:08.251Z,993.75
2018-11-11T11:10:08.238Z,993.75
2018-11-11T11:11:08.227Z,993.72
2018-11-11T11:12:08.218Z,993.67
2018-11-11T11:13:08.272Z,993.66
2018-11-11T11:14:08.192Z,993.71
2018-11-11T11:15:08.185Z,993.71
2018-11-11T11:16:08.170Z,993.71
2018-11-11T11:17:08.261Z,993.76
2018-11-11T11:18:08.148Z,993.77
2018-11-11T11:19:08.143Z,993.78
2018-11-11T11:20:08.129Z,993.71
2018-11-11T11:21:08.116Z,993.74
2018-11-11T11:22:08.106Z,993.75
2018-11-11T11:23:08.260Z,993.86
2018-11-11T11:24:08.086Z,993.82
2018-11-11T11:25:08.072Z,993.77
2018-11-11T11:26:08.071Z,993.74
2018-11-11T11:27:08.105Z,993.71
2018-11-11T11:28:08.041Z,993.69
2018-11-11T11:29:08.031Z,993.69
2018-11-11T11:30:08.019Z,993.77
2018-11-11T11:31:08.006Z,993.83
2018-11-11T11:32:08.072Z,993.83
2018-11-11T11:33:07.985Z,993.78
2018-11-11T11:34:07.975Z,993.74
2018-11-11T11:35:07.969Z,993.72
2018-11-11T11:36:07.954Z,993.80
2018-11-11T11:37:07.945Z,993.82
2018-11-11T11:38:07.966Z,993.89
2018-11-11T11:39:07.921Z,993.93
2018-11-11T11:40:07.907Z,994.02
2018-11-11T11:41:07.928Z,994.04
2018-11-11T11:42:07.888Z,994.11
2018-11-11T11:43:07.875Z,994.09
2018-11-11T11:44:07.996Z,994.03
2018-11-11T11:45:07.857Z,994.04
2018-11-11T11:46:07.841Z,994.03
2018-11-11T11:47:07.836Z,994.02
2018-11-11T11:48:07.821Z,993.97
2018-11-11T11:49:07.809Z,994.00
2018-11-11T11:50:07.937Z,993.99
2018-11-11T11:51:07.790Z,993.93
2018-11-11T11:52:07.787Z,993.91
2018-11-11T11:53:07.765Z,993.87
2018-11-11T11:54:07.755Z,993.81
2018-11-11T11:55:07.745Z,993.78
2018-11-11T11:56:07.734Z,993.74
2018-11-11T11:57:07.722Z,993.87
2018-11-11T11:58:07.779Z,993.93
2018-11-11T11:59:07.699Z,993.83
2018-11-11T12:00:07.688Z,993.79
2018-11-11T12:01:07.681Z,993.68
2018-11-11T12:02:07.712Z,993.56
2018-11-11T12:03:07.655Z,993.55
2018-11-11T12:04:07.643Z,993.51
2018-11-11T12:05:07.635Z,993.51
2018-11-11T12:06:07.626Z,993.48
2018-11-11T12:07:07.611Z,993.51
2018-11-11T12:08:07.602Z,993.63
2018-11-11T12:09:07.615Z,993.64
2018-11-11T12:10:07.580Z,993.71
2018-11-11T12:11:07.569Z,993.67
2018-11-11T12:12:07.557Z,993.68
2018-11-11T12:13:07.544Z,993.70
2018-11-11T12:14:07.535Z,993.70
2018-11-11T12:15:07.525Z,993.74
2018-11-11T12:16:07.513Z,993.77
2018-11-11T12:17:07.520Z,993.76
2018-11-11T12:18:07.492Z,993.77
2018-11-11T12:19:07.481Z,993.80
2018-11-11T12:20:07.471Z,993.83
2018-11-11T12:21:07.458Z,993.81
2018-11-11T12:22:07.450Z,993.79
2018-11-11T12:23:07.494Z,993.80
2018-11-11T12:24:07.425Z,993.88
2018-11-11T12:25:07.417Z,993.92
2018-11-11T12:26:07.404Z,993.89
2018-11-11T12:27:07.393Z,993.90
2018-11-11T12:28:07.386Z,993.94